Time;durP1;ratioP1;P1;durP2;ratioP2;P2;SDS_P1;SDS_P2;PMS_P1;PMS_P2;Temp;Humidity;BMP_temperature;BMP_pressure;BME280_temperature;BME280_humidity;BME280_pressure;Samples;Min_cycle;Max_cycle;Signal;HPM_P1;HPM_P2
2021/04/14 00:00:17;;;;;;;18.35;12.65;;;2.80;75.60;;;;;;6229867;23;20012;-69
2021/04/14 00:02:43;;;;;;;18.67;12.45;;;2.90;73.70;;;;;;6207086;23;20052;-69
2021/04/14 00:05:09;;;;;;;22.75;12.35;;;2.60;74.10;;;;;;6221548;23;20027;-69
2021/04/14 00:07:35;;;;;;;16.63;11.57;;;2.80;74.10;;;;;;6223158;23;20339;-69
2021/04/14 00:10:00;;;;;;;16.20;11.30;;;2.90;73.30;;;;;;6200979;23;20021;-69
2021/04/14 00:12:26;;;;;;;17.13;12.00;;;2.90;73.20;;;;;;6229076;23;20004;-69
2021/04/14 00:14:51;;;;;;;18.98;12.45;;;2.60;73.00;;;;;;6207016;23;20012;-69
2021/04/14 00:17:17;;;;;;;23.27;13.30;;;2.30;74.20;;;;;;6220883;23;20211;-69
2021/04/14 00:19:42;;;;;;;18.33;12.48;;;2.00;75.00;;;;;;6223187;23;20040;-69
2021/04/14 00:22:08;;;;;;;17.02;11.60;;;2.00;75.60;;;;;;6225611;23;20307;-69
2021/04/14 00:24:36;;;;;;;20.00;13.30;;;2.50;75.50;;;;;;6194162;23;20060;-69
2021/04/14 00:27:02;;;;;;;19.42;12.55;;;2.30;74.40;;;;;;6207513;23;20004;-69
2021/04/14 00:29:27;;;;;;;18.10;12.25;;;2.10;75.20;;;;;;6194343;23;20185;-69
2021/04/14 00:31:53;;;;;;;18.45;11.90;;;2.10;75.10;;;;;;6223267;23;20017;-69
2021/04/14 00:34:19;;;;;;;16.90;12.05;;;2.10;75.40;;;;;;6199462;23;20016;-69
2021/04/14 00:36:45;;;;;;;16.98;11.70;;;2.50;74.80;;;;;;6201368;23;20009;-69
2021/04/14 00:39:29;;;;;;;16.48;11.75;;;2.70;73.40;;;;;;6204094;23;20008;-69
2021/04/14 00:41:55;;;;;;;17.88;11.90;;;2.50;72.60;;;;;;6233147;23;20023;-69
2021/04/14 00:44:21;;;;;;;19.30;12.38;;;2.00;74.10;;;;;;6194276;23;20012;-69
2021/04/14 00:46:46;;;;;;;18.85;12.32;;;2.00;74.50;;;;;;6222266;23;20009;-69
2021/04/14 00:49:12;;;;;;;18.13;12.13;;;2.00;75.10;;;;;;6225011;23;20019;-69
2021/04/14 00:51:39;;;;;;;21.45;12.77;;;1.90;75.10;;;;;;6227100;23;20009;-69
2021/04/14 00:54:04;;;;;;;19.27;12.57;;;1.80;75.30;;;;;;6206439;23;20013;-69
2021/04/14 00:56:30;;;;;;;18.65;12.75;;;1.90;75.10;;;;;;6194337;23;20013;-69
2021/04/14 00:58:55;;;;;;;18.65;12.43;;;1.90;75.20;;;;;;6196702;23;20051;-69
2021/04/14 01:01:21;;;;;;;17.77;11.30;;;2.00;74.80;;;;;;6198488;23;20080;-69
2021/04/14 01:03:47;;;;;;;19.45;12.45;;;2.10;74.70;;;;;;6201359;23;20024;-69
2021/04/14 01:06:19;;;;;;;16.45;11.25;;;2.00;74.50;;;;;;6230337;23;20011;-69
2021/04/14 01:08:44;;;;;;;16.98;11.77;;;1.90;74.30;;;;;;6206697;23;20262;-69
2021/04/14 01:11:10;;;;;;;18.10;11.25;;;2.20;74.50;;;;;;6220856;23;20059;-69
2021/04/14 01:13:36;;;;;;;18.27;11.70;;;2.10;73.90;;;;;;6197528;23;20032;-69
2021/04/14 01:16:02;;;;;;;21.08;12.32;;;1.90;73.80;;;;;;6169278;23;20009;-69
2021/04/14 01:18:30;;;;;;;20.25;13.20;;;1.80;74.40;;;;;;6227618;23;20324;-69
2021/04/14 01:20:56;;;;;;;19.25;12.80;;;1.80;74.30;;;;;;6206057;23;20340;-69
2021/04/14 01:23:23;;;;;;;19.83;12.85;;;1.40;75.20;;;;;;6219229;23;20086;-69
2021/04/14 01:25:48;;;;;;;20.02;12.77;;;1.40;75.70;;;;;;6196735;23;20016;-69
2021/04/14 01:28:17;;;;;;;18.63;12.55;;;1.20;76.30;;;;;;6224552;23;20347;-69
2021/04/14 01:30:43;;;;;;;18.98;13.10;;;1.20;77.00;;;;;;6226378;23;20009;-69
2021/04/14 01:33:09;;;;;;;21.13;12.60;;;1.30;76.90;;;;;;6203384;23;20004;-69
2021/04/14 01:35:34;;;;;;;18.73;11.85;;;1.30;76.80;;;;;;6205940;23;20000;-69
2021/04/14 01:38:00;;;;;;;17.27;11.75;;;1.50;76.30;;;;;;6221326;23;20007;-69
2021/04/14 01:40:26;;;;;;;16.05;11.05;;;2.40;75.40;;;;;;6224429;23;20039;-69
2021/04/14 01:42:52;;;;;;;17.45;11.60;;;2.80;72.90;;;;;;6200861;23;20067;-69
2021/04/14 01:45:23;;;;;;;17.67;11.10;;;2.50;71.30;;;;;;6228044;23;20009;-69
2021/04/14 01:47:49;;;;;;;;;;;2.10;72.40;;;;;;6206403;23;19997;-69
2021/04/14 01:50:15;;;;;;;18.80;11.60;;;1.80;73.20;;;;;;6194637;23;19908;-69
2021/04/14 01:52:40;;;;;;;18.17;12.18;;;1.60;74.00;;;;;;6222826;23;20025;-69
2021/04/14 01:55:06;;;;;;;20.83;12.52;;;1.30;75.10;;;;;;6193836;23;20009;-69
2021/04/14 01:57:32;;;;;;;19.35;12.68;;;1.20;76.10;;;;;;6193775;23;20020;-69
2021/04/14 01:59:57;;;;;;;19.52;12.82;;;1.10;76.50;;;;;;6196166;23;20013;-69
2021/04/14 02:02:23;;;;;;;18.65;12.02;;;1.00;76.70;;;;;;6193358;23;20051;-70
2021/04/14 02:04:50;;;;;;;18.77;12.27;;;1.30;76.90;;;;;;6223134;23;20350;-69
2021/04/14 02:07:15;;;;;;;19.27;13.00;;;1.40;75.80;;;;;;6198925;23;20008;-69
2021/04/14 02:09:41;;;;;;;18.10;12.00;;;1.40;75.50;;;;;;6226490;23;20201;-69
2021/04/14 02:12:07;;;;;;;19.80;12.95;;;1.60;75.00;;;;;;6231136;23;20007;-69
2021/04/14 02:14:33;;;;;;;17.27;11.63;;;1.40;74.70;;;;;;6218830;23;20327;-69
2021/04/14 02:16:58;;;;;;;17.20;11.73;;;1.60;75.20;;;;;;6193403;23;20024;-70
2021/04/14 02:19:24;;;;;;;17.23;11.65;;;1.60;74.70;;;;;;6197023;23;20079;-69
2021/04/14 02:21:50;;;;;;;18.40;11.40;;;1.70;74.50;;;;;;6200338;23;20126;-69
2021/04/14 02:24:15;;;;;;;15.25;10.63;;;1.80;74.80;;;;;;6227720;23;20008;-69
2021/04/14 02:26:41;;;;;;;19.15;13.00;;;2.20;73.90;;;;;;6230751;23;20007;-69
2021/04/14 02:29:07;;;;;;;16.83;11.25;;;2.00;72.80;;;;;;6221733;23;20015;-70
2021/04/14 02:31:32;;;;;;;18.25;11.25;;;1.90;73.30;;;;;;6224106;23;20043;-70
2021/04/14 02:34:03;;;;;;;16.73;11.52;;;1.70;74.40;;;;;;6225246;23;20060;-69
2021/04/14 02:36:29;;;;;;;18.80;12.10;;;2.00;74.90;;;;;;6201693;23;20012;-69
2021/04/14 02:38:55;;;;;;;18.73;11.82;;;2.40;73.90;;;;;;6205760;23;20390;-69
2021/04/14 02:41:20;;;;;;;19.02;12.40;;;1.90;73.00;;;;;;6218357;23;20319;-69
2021/04/14 02:43:49;;;;;;;19.50;11.95;;;1.60;74.10;;;;;;6221145;23;20009;-69
2021/04/14 02:46:15;;;;;;;16.42;11.68;;;1.60;74.70;;;;;;6223485;23;20024;-69
2021/04/14 02:48:40;;;;;;;20.55;12.43;;;1.80;74.50;;;;;;6226169;23;20009;-70
2021/04/14 02:51:06;;;;;;;18.58;11.57;;;2.10;74.30;;;;;;6205726;23;20052;-69
2021/04/14 02:53:32;;;;;;;18.10;11.90;;;2.00;74.00;;;;;;6218331;23;20020;-69
2021/04/14 02:55:57;;;;;;;18.95;11.75;;;1.90;74.00;;;;;;6221697;23;20067;-70
2021/04/14 02:58:23;;;;;;;16.27;10.57;;;2.00;73.40;;;;;;6222726;23;20344;-69
2021/04/14 03:00:48;;;;;;;19.58;11.32;;;2.60;73.10;;;;;;6225183;23;20031;-69
2021/04/14 03:03:14;;;;;;;17.48;11.88;;;2.90;71.40;;;;;;6218307;23;20005;-69
2021/04/14 03:05:39;;;;;;;18.27;12.13;;;2.60;69.80;;;;;;6220121;23;20314;-69
2021/04/14 03:08:05;;;;;;;17.38;11.82;;;1.80;71.20;;;;;;6221089;23;20081;-69
2021/04/14 03:10:31;;;;;;;16.35;11.52;;;1.60;73.00;;;;;;6196995;23;20012;-69
2021/04/14 03:12:56;;;;;;;18.15;12.38;;;1.40;74.20;;;;;;6224116;23;20044;-69
2021/04/14 03:15:30;;;;;;;17.60;11.50;;;1.50;74.40;;;;;;6203559;23;20012;-69
2021/04/14 03:17:56;;;;;;;17.05;11.25;;;1.50;74.50;;;;;;6207294;23;20032;-69
2021/04/14 03:20:21;;;;;;;20.10;12.18;;;1.20;74.80;;;;;;6194972;23;20008;-69
2021/04/14 03:22:48;;;;;;;22.70;12.45;;;1.20;74.50;;;;;;6224226;23;20013;-69
2021/04/14 03:25:13;;;;;;;17.33;11.30;;;0.90;75.40;;;;;;6200536;23;20051;-69
2021/04/14 03:27:39;;;;;;;20.60;12.07;;;1.00;76.30;;;;;;6227137;23;20067;-69
2021/04/14 03:30:06;;;;;;;17.83;11.93;;;1.10;76.00;;;;;;6172685;23;20015;-69
2021/04/14 03:32:31;;;;;;;19.50;12.15;;;1.40;76.50;;;;;;6194691;23;20016;-69
2021/04/14 03:34:57;;;;;;;18.95;11.48;;;1.90;74.70;;;;;;6223753;23;20012;-69
2021/04/14 03:37:23;;;;;;;17.33;11.13;;;1.90;74.00;;;;;;6224982;23;20287;-69
2021/04/14 03:39:48;;;;;;;20.83;12.32;;;2.40;74.00;;;;;;6226754;23;20016;-69
2021/04/14 03:42:14;;;;;;;20.17;11.70;;;2.40;71.90;;;;;;6228860;23;20012;-69
2021/04/14 03:44:40;;;;;;;18.35;11.25;;;1.90;72.20;;;;;;6206919;23;20200;-69
2021/04/14 03:47:06;;;;;;;16.05;11.00;;;1.60;73.90;;;;;;6196297;23;20062;-69
2021/04/14 03:49:32;;;;;;;17.45;11.43;;;1.70;74.90;;;;;;6194189;23;20009;-69
2021/04/14 03:51:57;;;;;;;17.70;11.55;;;2.20;74.00;;;;;;6226825;23;20112;-69
2021/04/14 03:54:23;;;;;;;22.98;11.50;;;2.40;72.50;;;;;;6228429;23;20030;-69
2021/04/14 03:56:48;;;;;;;17.23;11.27;;;2.20;71.00;;;;;;6232251;23;20031;-69
2021/04/14 03:59:14;;;;;;;22.80;11.88;;;1.60;73.30;;;;;;6219649;23;20299;-69
2021/04/14 04:01:39;;;;;;;17.48;11.38;;;1.60;73.80;;;;;;6224388;23;20264;-69
2021/04/14 04:04:05;;;;;;;20.77;12.60;;;1.60;74.20;;;;;;6225913;23;20330;-69
2021/04/14 04:06:30;;;;;;;18.98;11.93;;;1.40;74.30;;;;;;6229154;23;20003;-69
2021/04/14 04:08:56;;;;;;;18.10;11.73;;;1.20;75.40;;;;;;6231950;23;20008;-69
2021/04/14 04:11:22;;;;;;;19.02;11.50;;;1.00;75.90;;;;;;6194892;23;20107;-69
2021/04/14 04:13:49;;;;;;;18.83;11.32;;;1.20;76.50;;;;;;6169331;23;20020;-69
2021/04/14 04:16:14;;;;;;;19.15;11.85;;;1.10;76.20;;;;;;6224263;23;20319;-69
2021/04/14 04:18:40;;;;;;;17.48;11.05;;;1.60;76.00;;;;;;6226703;23;20020;-69
2021/04/14 04:21:06;;;;;;;19.70;11.43;;;2.00;74.50;;;;;;6206800;23;19996;-69
2021/04/14 04:23:31;;;;;;;17.90;11.60;;;1.90;73.70;;;;;;6194714;23;20019;-69
2021/04/14 04:25:57;;;;;;;17.92;11.43;;;1.90;73.80;;;;;;6196258;23;20009;-69
2021/04/14 04:28:22;;;;;;;18.65;11.40;;;1.80;73.00;;;;;;6225286;23;20020;-69
2021/04/14 04:30:50;;;;;;;18.48;11.00;;;1.60;73.50;;;;;;6226183;23;20047;-69
2021/04/14 04:33:16;;;;;;;20.17;11.10;;;2.10;74.20;;;;;;6229044;23;20043;-69
2021/04/14 04:35:41;;;;;;;20.52;12.43;;;1.70;72.40;;;;;;6233300;23;20024;-69
2021/04/14 04:38:07;;;;;;;20.75;11.15;;;1.60;73.10;;;;;;6220761;23;20146;-69
2021/04/14 04:40:32;;;;;;;18.20;11.57;;;1.30;74.60;;;;;;6223576;23;20304;-69
2021/04/14 04:42:58;;;;;;;22.15;11.35;;;1.30;75.60;;;;;;6226233;23;20016;-69
2021/04/14 04:45:26;;;;;;;18.08;11.63;;;1.50;75.10;;;;;;6228025;23;20326;-69
2021/04/14 04:47:52;;;;;;;20.35;11.95;;;1.30;74.30;;;;;;6206363;23;20407;-68
2021/04/14 04:50:18;;;;;;;20.48;11.15;;;1.00;75.40;;;;;;6221380;23;20032;-68
2021/04/14 04:52:44;;;;;;;19.25;12.27;;;0.90;76.10;;;;;;6197423;23;20270;-69
2021/04/14 04:55:10;;;;;;;19.58;12.07;;;0.80;76.20;;;;;;6224790;23;20023;-69
2021/04/14 04:57:36;;;;;;;19.85;12.35;;;1.10;76.70;;;;;;6169528;23;20203;-70
2021/04/14 05:00:06;;;;;;;19.98;11.50;;;1.10;75.70;;;;;;6231257;23;20004;-69
2021/04/14 05:02:31;;;;;;;17.38;11.13;;;1.20;76.00;;;;;;6193994;23;20004;-68
2021/04/14 05:04:57;;;;;;;20.30;12.40;;;1.20;75.10;;;;;;6169155;23;20012;-69
2021/04/14 05:07:22;;;;;;;20.00;11.93;;;0.90;75.40;;;;;;6198702;23;20308;-69
2021/04/14 05:09:48;;;;;;;17.83;11.90;;;0.80;76.10;;;;;;6226126;23;20008;-69
2021/04/14 05:12:13;;;;;;;18.80;12.25;;;0.90;76.60;;;;;;6229581;23;20023;-69
2021/04/14 05:14:39;;;;;;;18.25;11.38;;;1.10;76.40;;;;;;6206025;23;20016;-69
2021/04/14 05:17:05;;;;;;;20.77;12.13;;;1.10;75.40;;;;;;6221650;23;20087;-69
2021/04/14 05:19:30;;;;;;;18.67;11.00;;;1.00;75.40;;;;;;6196350;23;20017;-68
2021/04/14 05:21:56;;;;;;;17.27;11.48;;;1.00;75.90;;;;;;6200489;23;20247;-68
2021/04/14 05:24:22;;;;;;;17.08;11.00;;;1.20;75.70;;;;;;6202850;23;20028;-69
2021/04/14 05:26:47;;;;;;;22.13;11.95;;;1.30;75.40;;;;;;6206053;23;20299;-69
2021/04/14 05:29:13;;;;;;;19.63;11.60;;;1.30;74.90;;;;;;6221229;23;20072;-68
2021/04/14 05:31:39;;;;;;;24.88;12.38;;;1.30;75.10;;;;;;6176046;23;20018;-69
2021/04/14 05:34:05;;;;;;;18.85;11.68;;;1.30;75.10;;;;;;6186190;23;20012;-69
2021/04/14 05:36:30;;;;;;;21.00;12.82;;;1.30;75.30;;;;;;6190596;23;20051;-69
2021/04/14 05:38:56;;;;;;;19.17;11.75;;;1.40;75.10;;;;;;6218241;23;20019;-69
2021/04/14 05:41:22;;;;;;;20.85;11.45;;;1.50;75.00;;;;;;6223477;23;20039;-69
2021/04/14 05:43:48;;;;;;;19.55;11.25;;;1.70;74.20;;;;;;6198981;23;20017;-68
2021/04/14 05:46:16;;;;;;;19.27;11.45;;;1.90;73.90;;;;;;6193349;23;20181;-69
2021/04/14 05:48:42;;;;;;;23.85;11.80;;;2.10;74.30;;;;;;6205459;23;20004;-68
2021/04/14 05:51:10;;;;;;;17.50;11.48;;;2.00;72.70;;;;;;6168705;23;20013;-68
2021/04/14 05:53:36;;;;;;;18.05;11.55;;;2.30;73.20;;;;;;6220725;23;20023;-69
2021/04/14 05:56:03;;;;;;;20.67;11.60;;;2.10;72.20;;;;;;6168438;23;20008;-68
2021/04/14 05:58:29;;;;;;;24.85;12.38;;;2.10;72.90;;;;;;6218521;23;20015;-68
2021/04/14 06:00:54;;;;;;;21.05;12.70;;;2.10;73.00;;;;;;6230807;23;20220;-69
2021/04/14 06:03:21;;;;;;;20.85;12.60;;;1.90;72.90;;;;;;6193426;23;20005;-68
2021/04/14 06:05:47;;;;;;;19.48;11.98;;;2.00;73.90;;;;;;6221651;23;20012;-69
2021/04/14 06:08:12;;;;;;;22.27;12.00;;;2.30;74.30;;;;;;6223132;23;20074;-69
2021/04/14 06:10:38;;;;;;;18.35;11.30;;;2.90;73.20;;;;;;6200082;23;20000;-69
2021/04/14 06:13:03;;;;;;;18.15;10.95;;;3.60;71.00;;;;;;6202871;23;20004;-69
2021/04/14 06:15:31;;;;;;;19.50;11.70;;;3.70;69.90;;;;;;6230811;23;20063;-68
2021/04/14 06:17:56;;;;;;;16.13;10.50;;;3.70;69.10;;;;;;6167999;23;20086;-68
2021/04/14 06:20:25;;;;;;;18.25;11.23;;;3.60;69.40;;;;;;6197113;23;20020;-68
2021/04/14 06:22:50;;;;;;;20.73;10.77;;;3.60;69.70;;;;;;6199328;23;20016;-68
2021/04/14 06:25:18;;;;;;;22.70;11.07;;;3.50;69.60;;;;;;6227193;23;20322;-68
2021/04/14 06:27:52;;;;;;;16.55;10.95;;;3.60;69.60;;;;;;6205991;23;20016;-69
2021/04/14 06:30:18;;;;;;;16.73;10.80;;;4.00;70.10;;;;;;6218966;23;20016;-68
2021/04/14 06:32:44;;;;;;;18.77;11.10;;;3.70;69.50;;;;;;6193399;23;20351;-68
2021/04/14 06:35:10;;;;;;;21.35;10.90;;;3.70;70.90;;;;;;6223256;23;20017;-69
2021/04/14 06:37:36;;;;;;;18.95;10.15;;;4.30;70.20;;;;;;6200615;23;20031;-69
2021/04/14 06:45:59;;;;;;;15.90;9.98;;;4.60;68.40;;;;;;6136119;23;20335;-69
2021/04/14 06:48:47;;;;;;;16.25;9.80;;;4.90;67.90;;;;;;6193396;23;20017;-69
2021/04/14 06:51:33;;;;;;;16.98;9.32;;;5.20;66.30;;;;;;6222030;23;20025;-69
2021/04/14 06:54:16;;;;;;;15.40;8.88;;;5.40;65.10;;;;;;6196441;23;20054;-69
2021/04/14 06:56:42;;;;;;;13.23;8.60;;;5.50;65.10;;;;;;6172786;23;20017;-68
2021/04/14 06:59:13;;;;;;;16.48;8.63;;;5.70;64.00;;;;;;6175434;23;20019;-69
2021/04/14 07:01:43;;;;;;;14.90;8.27;;;5.40;63.20;;;;;;6178709;23;20020;-69
2021/04/14 07:04:11;;;;;;;13.82;7.93;;;5.40;65.00;;;;;;6205374;23;20124;-70
2021/04/14 07:06:41;;;;;;;10.32;5.75;;;5.50;65.30;;;;;;6182956;23;20009;-69
2021/04/14 07:09:22;;;;;;;12.07;7.18;;;5.90;62.50;;;;;;6171486;23;20019;-69
2021/04/14 07:11:47;;;;;;;10.90;6.93;;;9.30;58.60;;;;;;6220326;23;20017;-70
2021/04/14 07:14:14;;;;;;;11.63;7.75;;;16.50;37.60;;;;;;6200118;23;20614;-71
2021/04/14 07:16:51;;;;;;;11.48;7.10;;;21.00;28.60;;;;;;6177620;23;20055;-69
2021/04/14 07:19:40;;;;;;;13.43;7.35;;;23.10;24.10;;;;;;6155927;23;20280;-71
2021/04/14 07:22:17;;;;;;;9.52;7.32;;;25.80;22.10;;;;;;6158959;23;20004;-70
2021/04/14 07:24:48;;;;;;;9.60;6.70;;;25.80;20.80;;;;;;6159765;23;20058;-70
2021/04/14 07:27:36;;;;;;;12.88;6.88;;;27.60;18.90;;;;;;6146418;23;20124;-68
2021/04/14 07:30:07;;;;;;;10.18;6.45;;;31.20;15.30;;;;;;6200502;23;20023;-69
2021/04/14 07:32:54;;;;;;;10.45;6.28;;;30.70;15.30;;;;;;6168956;23;20013;-69
2021/04/14 07:35:32;;;;;;;11.25;6.63;;;32.50;13.70;;;;;;6199395;23;20017;-69
2021/04/14 07:38:03;;;;;;;8.05;6.07;;;35.50;12.20;;;;;;6201691;23;20084;-69
2021/04/14 07:40:29;;;;;;;;;;;37.00;10.90;;;;;;6202747;23;20016;-69
2021/04/14 07:43:16;;;;;;;8.43;5.20;;;40.80;8.50;;;;;;6223137;23;19903;-68
2021/04/14 07:45:41;;;;;;;9.65;4.90;;;40.50;8.80;;;;;;6198075;23;20020;-68
2021/04/14 07:48:31;;;;;;;5.65;4.47;;;43.00;7.30;;;;;;6222845;23;20043;-68
2021/04/14 07:51:01;;;;;;;5.53;3.70;;;44.00;7.10;;;;;;6150775;23;20035;-69
2021/04/14 07:53:29;;;;;;;8.48;3.83;;;46.70;6.00;;;;;;6173513;23;20017;-69
2021/04/14 07:56:01;;;;;;;6.80;3.20;;;46.20;5.80;;;;;;6176416;23;20068;-68
2021/04/14 07:58:27;;;;;;;9.15;3.40;;;33.80;10.90;;;;;;6202922;23;20212;-69
2021/04/14 08:00:52;;;;;;;4.30;3.03;;;24.20;18.50;;;;;;6181454;23;20019;-69
2021/04/14 08:03:23;;;;;;;3.55;2.13;;;19.20;23.80;;;;;;6221064;23;20012;-69
2021/04/14 08:05:48;;;;;;;5.75;2.35;;;15.90;26.50;;;;;;6197555;23;20017;-70
2021/04/14 08:08:16;;;;;;;4.18;2.60;;;13.50;30.10;;;;;;6174213;23;20104;-67
2021/04/14 08:10:56;;;;;;;6.85;2.70;;;12.60;32.30;;;;;;6177775;23;20011;-67
2021/04/14 08:13:23;;;;;;;12.23;3.90;;;12.00;34.20;;;;;;6144950;23;20008;-69
2021/04/14 08:15:49;;;;;;;6.13;2.72;;;11.50;35.20;;;;;;6182708;23;20009;-69
2021/04/14 08:18:23;;;;;;;7.93;3.00;;;11.40;35.80;;;;;;6170203;23;20330;-70
2021/04/14 08:21:03;;;;;;;6.55;2.78;;;11.30;37.20;;;;;;6196574;23;20013;-67
2021/04/14 08:23:30;;;;;;;7.00;3.05;;;11.00;38.40;;;;;;6224459;23;20012;-67
2021/04/14 08:25:57;;;;;;;8.00;3.00;;;10.50;38.80;;;;;;6199751;23;20058;-67
2021/04/14 08:28:42;;;;;;;8.68;3.17;;;9.90;37.80;;;;;;6177900;23;20063;-67
2021/04/14 08:31:35;;;;;;;7.68;2.80;;;10.20;40.50;;;;;;6183179;23;20008;-67
2021/04/14 08:34:09;;;;;;;5.57;2.78;;;10.30;38.90;;;;;;6180645;23;20188;-68
2021/04/14 08:36:38;;;;;;;6.10;3.08;;;9.90;39.40;;;;;;6207111;23;20076;-67
2021/04/14 08:39:13;;;;;;;9.55;3.58;;;9.40;40.40;;;;;;6194186;23;20212;-67
2021/04/14 08:41:38;;;;;;;7.80;3.47;;;9.40;41.20;;;;;;6144951;23;20017;-67
2021/04/14 08:44:10;;;;;;;6.85;3.22;;;9.60;40.40;;;;;;6169079;23;20009;-67
2021/04/14 08:46:39;;;;;;;7.57;3.25;;;9.90;41.10;;;;;;6202043;23;20055;-69
2021/04/14 08:49:10;;;;;;;7.68;3.08;;;10.00;41.40;;;;;;6201624;23;20000;-69
2021/04/14 08:51:41;;;;;;;;;;;10.30;40.30;;;;;;6123778;23;20005;-69
2021/04/14 08:54:07;;;;;;;6.25;2.60;;;10.70;41.10;;;;;;6194349;23;19900;-69
2021/04/14 08:56:33;;;;;;;8.75;2.63;;;10.20;38.50;;;;;;6172945;23;20016;-69
2021/04/14 08:58:59;;;;;;;5.68;2.45;;;10.40;38.90;;;;;;6199070;23;20005;-69
2021/04/14 09:01:26;;;;;;;5.95;2.60;;;9.90;37.50;;;;;;6177360;23;20229;-69
2021/04/14 09:03:54;;;;;;;8.57;2.55;;;9.90;39.70;;;;;;6147463;23;20036;-69
2021/04/14 09:06:19;;;;;;;7.03;3.22;;;9.90;39.20;;;;;;6194559;23;20020;-69
2021/04/14 09:08:48;;;;;;;15.80;3.40;;;9.40;40.70;;;;;;6194535;23;20012;-69
2021/04/14 09:11:19;;;;;;;10.65;3.00;;;9.50;40.20;;;;;;6196778;23;20012;-69
2021/04/14 09:13:45;;;;;;;7.75;3.10;;;9.60;42.80;;;;;;6199985;23;20004;-69
2021/04/14 09:16:11;;;;;;;9.20;2.95;;;9.60;44.00;;;;;;6229195;23;20007;-69
2021/04/14 09:18:42;;;;;;;8.60;2.97;;;9.90;43.40;;;;;;6195780;23;20052;-69
2021/04/14 09:21:15;;;;;;;7.13;2.72;;;9.70;41.10;;;;;;6194899;23;20024;-69
2021/04/14 09:24:02;;;;;;;22.92;3.75;;;8.80;42.70;;;;;;6148625;23;20343;-69
2021/04/14 09:26:35;;;;;;;7.97;2.60;;;8.40;46.10;;;;;;6147115;23;20063;-68
2021/04/14 09:29:00;;;;;;;6.32;2.97;;;8.20;46.00;;;;;;6196028;23;20063;-69
2021/04/14 09:31:39;;;;;;;8.05;2.83;;;8.00;44.10;;;;;;6192239;23;20048;-69
2021/04/14 09:34:31;;;;;;;6.32;2.70;;;7.90;44.40;;;;;;6203397;23;20184;-69
2021/04/14 09:37:11;;;;;;;5.18;2.95;;;7.80;48.20;;;;;;6160061;23;20043;-69
2021/04/14 09:39:43;;;;;;;4.88;2.95;;;8.20;46.50;;;;;;6196656;23;20215;-68
2021/04/14 09:42:39;;;;;;;9.13;3.30;;;7.90;46.10;;;;;;6194894;23;20015;-69
2021/04/14 09:45:28;;;;;;;5.95;3.00;;;7.70;47.20;;;;;;6175040;23;20067;-68
2021/04/14 09:47:55;;;;;;;7.63;3.35;;;7.40;49.00;;;;;;6195808;23;20383;-68
2021/04/14 09:50:29;;;;;;;6.78;3.10;;;7.50;48.50;;;;;;6173531;23;20016;-69
2021/04/14 09:52:58;;;;;;;5.85;2.78;;;7.50;49.70;;;;;;6226222;23;20087;-68
2021/04/14 09:55:33;;;;;;;9.30;2.83;;;7.40;46.80;;;;;;6201154;23;20012;-69
2021/04/14 09:58:06;;;;;;;4.13;2.63;;;7.50;47.90;;;;;;6180795;23;20008;-69
2021/04/14 10:00:32;;;;;;;7.00;2.90;;;8.00;46.60;;;;;;6157158;23;20008;-68
2021/04/14 10:02:59;;;;;;;5.75;2.90;;;7.90;44.70;;;;;;6171091;23;20080;-69
2021/04/14 10:05:28;;;;;;;5.68;2.47;;;7.90;47.10;;;;;;6173641;23;20012;-69
2021/04/14 10:08:01;;;;;;;8.40;2.80;;;7.80;46.30;;;;;;6175475;23;20251;-68
2021/04/14 10:10:27;;;;;;;6.65;2.80;;;8.30;45.70;;;;;;6177601;23;20020;-68
2021/04/14 10:12:53;;;;;;;6.07;3.05;;;8.60;44.80;;;;;;6205929;23;20000;-69
2021/04/14 10:15:29;;;;;;;5.75;2.80;;;8.80;44.20;;;;;;6169437;23;20012;-69
2021/04/14 10:18:02;;;;;;;4.78;2.67;;;8.70;43.10;;;;;;6195492;23;20020;-69
2021/04/14 10:20:30;;;;;;;5.10;2.60;;;8.40;43.80;;;;;;6220556;23;20259;-69
2021/04/14 10:22:56;;;;;;;4.30;2.67;;;8.50;43.80;;;;;;6198158;23;20019;-69
2021/04/14 10:25:31;;;;;;;10.73;2.63;;;9.20;45.20;;;;;;6176870;23;20009;-68
2021/04/14 10:28:26;;;;;;;3.60;2.50;;;9.40;44.80;;;;;;6231461;23;20015;-68
2021/04/14 10:31:08;;;;;;;5.45;2.60;;;9.60;43.40;;;;;;6219272;23;20016;-69
2021/04/14 10:33:34;;;;;;;8.27;4.10;;;9.80;45.40;;;;;;6221078;23;20008;-69
2021/04/14 10:36:15;;;;;;;5.63;2.60;;;9.60;44.00;;;;;;6221790;23;20335;-68
2021/04/14 10:38:41;;;;;;;;;;;9.40;38.90;;;;;;6198187;23;20066;-68
2021/04/14 10:41:18;;;;;;;5.68;2.58;;;9.80;43.50;;;;;;6193490;23;19916;-68
2021/04/14 10:43:44;;;;;;;6.75;2.63;;;10.10;41.50;;;;;;6199290;23;20219;-68
2021/04/14 10:46:18;;;;;;;15.20;3.72;;;10.40;41.50;;;;;;6202462;23;20008;-68
2021/04/14 10:48:48;;;;;;;5.88;2.50;;;10.50;39.60;;;;;;6232136;23;20299;-68
2021/04/14 10:51:20;;;;;;;6.75;2.63;;;10.30;38.00;;;;;;6170654;23;20391;-70
2021/04/14 10:53:46;;;;;;;5.30;2.40;;;10.40;40.10;;;;;;6171686;23;20072;-70
2021/04/14 10:56:19;;;;;;;6.40;2.55;;;10.20;39.20;;;;;;6143797;23;20123;-68
2021/04/14 10:58:45;;;;;;;5.70;2.45;;;10.00;39.20;;;;;;6226494;23;20013;-70
2021/04/14 11:01:16;;;;;;;8.27;2.35;;;9.90;40.90;;;;;;6177464;23;20409;-70
2021/04/14 11:03:42;;;;;;;5.15;2.60;;;9.80;39.80;;;;;;6157065;23;20011;-71
2021/04/14 11:06:10;;;;;;;7.22;2.28;;;9.80;39.90;;;;;;6194521;23;20212;-71
2021/04/14 11:08:35;;;;;;;4.72;2.17;;;9.30;39.00;;;;;;6197299;23;20016;-70
2021/04/14 11:11:01;;;;;;;6.47;2.40;;;9.20;42.10;;;;;;6173916;23;20207;-70
2021/04/14 11:13:28;;;;;;;8.40;3.00;;;9.00;42.30;;;;;;6176033;23;20031;-70
2021/04/14 11:15:54;;;;;;;9.43;2.78;;;9.00;44.10;;;;;;6205920;23;20005;-69
2021/04/14 11:18:30;;;;;;;10.48;2.60;;;9.20;43.00;;;;;;6193041;23;20032;-70
2021/04/14 11:21:07;;;;;;;5.60;2.90;;;8.90;42.00;;;;;;6170710;23;20227;-70
2021/04/14 11:23:37;;;;;;;5.43;2.20;;;8.70;43.80;;;;;;6193843;23;20008;-70
2021/04/14 11:26:13;;;;;;;7.07;2.10;;;8.50;41.80;;;;;;6174841;23;20055;-70
2021/04/14 11:28:40;;;;;;;5.15;2.33;;;8.90;43.50;;;;;;6168299;23;20446;-70
2021/04/14 11:31:06;;;;;;;3.80;1.90;;;9.10;42.80;;;;;;6199648;23;20001;-69
2021/04/14 11:33:44;;;;;;;7.80;2.03;;;8.80;41.10;;;;;;6203575;23;20000;-70
2021/04/14 11:36:25;;;;;;;12.60;2.30;;;8.70;41.60;;;;;;6169973;23;20311;-69
2021/04/14 11:39:09;;;;;;;4.70;2.30;;;8.70;42.30;;;;;;6222448;23;20012;-70
2021/04/14 11:41:40;;;;;;;5.40;2.53;;;8.70;43.20;;;;;;6223084;23;20247;-69
2021/04/14 11:44:24;;;;;;;5.68;2.33;;;8.80;44.50;;;;;;6120061;23;20070;-70
2021/04/14 11:46:57;;;;;;;9.02;2.42;;;8.60;42.80;;;;;;6175390;23;20029;-69
2021/04/14 11:49:31;;;;;;;7.90;2.50;;;8.40;42.00;;;;;;6152386;23;20024;-69
2021/04/14 11:51:58;;;;;;;6.50;2.50;;;8.40;45.00;;;;;;6181605;23;20023;-70
2021/04/14 11:54:34;;;;;;;4.38;2.30;;;9.10;43.90;;;;;;6146289;23;20005;-69
2021/04/14 11:57:04;;;;;;;5.88;2.33;;;9.30;43.70;;;;;;6147536;23;20016;-70
2021/04/14 11:59:32;;;;;;;6.45;2.50;;;9.50;42.90;;;;;;6197786;23;20019;-69
2021/04/14 12:02:22;;;;;;;5.32;2.50;;;9.10;38.80;;;;;;6151203;23;20024;-71
2021/04/14 12:05:01;;;;;;;8.50;2.40;;;9.00;41.80;;;;;;6183700;23;20350;-71
2021/04/14 12:07:27;;;;;;;6.50;2.15;;;9.10;42.40;;;;;;6177941;23;20216;-71
2021/04/14 12:09:53;;;;;;;3.45;2.00;;;9.00;41.30;;;;;;6157212;23;20020;-70
2021/04/14 12:12:18;;;;;;;5.97;2.17;;;9.40;42.70;;;;;;6194497;23;20028;-70
2021/04/14 12:14:44;;;;;;;4.50;2.00;;;9.80;39.40;;;;;;6223871;23;20009;-70
2021/04/14 12:17:12;;;;;;;3.72;2.13;;;9.90;39.00;;;;;;6199491;23;20032;-71
2021/04/14 12:19:38;;;;;;;6.18;2.25;;;9.70;40.20;;;;;;6177417;23;20092;-71
2021/04/14 12:22:03;;;;;;;4.07;1.98;;;10.20;41.60;;;;;;6154692;23;20318;-70
2021/04/14 12:24:29;;;;;;;5.50;2.03;;;10.40;39.30;;;;;;6171637;23;20011;-69
2021/04/14 12:26:54;;;;;;;7.55;2.00;;;10.60;38.80;;;;;;6222641;23;20307;-70
2021/04/14 12:29:20;;;;;;;4.40;2.08;;;10.90;40.70;;;;;;6194386;23;20016;-70
2021/04/14 12:31:46;;;;;;;4.50;2.00;;;10.90;37.10;;;;;;6169168;23;20008;-69
2021/04/14 12:34:11;;;;;;;4.60;2.00;;;10.80;39.20;;;;;;6203498;23;20008;-70
2021/04/14 12:36:37;;;;;;;4.55;2.10;;;10.50;38.20;;;;;;6157132;23;20000;-70
2021/04/14 12:39:03;;;;;;;7.55;2.33;;;10.60;35.80;;;;;;6170832;23;20016;-70
2021/04/14 12:41:29;;;;;;;3.83;2.35;;;10.70;40.40;;;;;;6197772;23;20219;-70
2021/04/14 12:43:54;;;;;;;6.82;2.30;;;11.00;38.70;;;;;;6174890;23;20024;-70
2021/04/14 12:46:20;;;;;;;5.82;2.03;;;11.30;38.40;;;;;;6228670;23;20013;-70
2021/04/14 12:48:46;;;;;;;6.88;2.13;;;11.10;34.30;;;;;;6206137;23;20327;-70
2021/04/14 12:51:30;;;;;;;4.28;2.25;;;11.10;38.10;;;;;;6145025;23;20304;-70
2021/04/14 12:54:20;;;;;;;5.28;2.30;;;11.50;39.80;;;;;;6147905;23;20059;-70
2021/04/14 12:56:59;;;;;;;7.47;2.10;;;11.70;38.50;;;;;;6172389;23;20062;-70
2021/04/14 12:59:26;;;;;;;3.92;2.55;;;11.90;38.80;;;;;;6197308;23;20245;-70